sensor_id;sensor_type;location;lat;lon;timestamp;P1;durP1;ratioP1;P2;durP2;ratioP2
22094;SDS011;24083;55.670;37.568;2024-02-26T00:00:49;4.70;;;2.22;;
22094;SDS011;24083;55.670;37.568;2024-02-26T00:03:14;8.30;;;3.30;;
22094;SDS011;24083;55.670;37.568;2024-02-26T00:13:52;4.90;;;2.60;;
22094;SDS011;24083;55.670;37.568;2024-02-26T00:22:17;7.90;;;2.70;;
22094;SDS011;24083;55.670;37.568;2024-02-26T00:24:48;5.13;;;2.72;;
22094;SDS011;24083;55.670;37.568;2024-02-26T00:27:16;6.38;;;2.08;;
22094;SDS011;24083;55.670;37.568;2024-02-26T00:29:42;5.30;;;3.00;;
22094;SDS011;24083;55.670;37.568;2024-02-26T00:32:08;7.90;;;3.28;;
22094;SDS011;24083;55.670;37.568;2024-02-26T00:37:39;7.65;;;3.05;;
22094;SDS011;24083;55.670;37.568;2024-02-26T00:40:10;7.97;;;3.20;;
22094;SDS011;24083;55.670;37.568;2024-02-26T00:45:27;6.60;;;2.72;;
22094;SDS011;24083;55.670;37.568;2024-02-26T00:47:53;7.88;;;2.95;;
22094;SDS011;24083;55.670;37.568;2024-02-26T00:50:19;4.35;;;2.35;;
22094;SDS011;24083;55.670;37.568;2024-02-26T00:52:45;5.05;;;2.70;;
22094;SDS011;24083;55.670;37.568;2024-02-26T00:55:11;6.13;;;2.88;;
22094;SDS011;24083;55.670;37.568;2024-02-26T00:57:42;7.05;;;2.83;;
22094;SDS011;24083;55.670;37.568;2024-02-26T01:00:12;8.13;;;3.00;;
22094;SDS011;24083;55.670;37.568;2024-02-26T01:02:45;8.40;;;3.05;;
22094;SDS011;24083;55.670;37.568;2024-02-26T01:05:15;6.88;;;2.70;;
22094;SDS011;24083;55.670;37.568;2024-02-26T01:07:42;5.10;;;2.20;;
22094;SDS011;24083;55.670;37.568;2024-02-26T01:13:11;4.88;;;2.58;;
22094;SDS011;24083;55.670;37.568;2024-02-26T01:18:21;3.55;;;1.73;;
22094;SDS011;24083;55.670;37.568;2024-02-26T01:20:48;3.38;;;1.80;;
22094;SDS011;24083;55.670;37.568;2024-02-26T01:23:18;6.20;;;1.83;;
22094;SDS011;24083;55.670;37.568;2024-02-26T01:25:46;4.68;;;1.90;;
22094;SDS011;24083;55.670;37.568;2024-02-26T01:28:15;4.53;;;2.70;;
22094;SDS011;24083;55.670;37.568;2024-02-26T01:30:58;4.10;;;2.30;;
22094;SDS011;24083;55.670;37.568;2024-02-26T01:33:25;7.18;;;2.50;;
22094;SDS011;24083;55.670;37.568;2024-02-26T01:38:51;3.53;;;1.83;;
22094;SDS011;24083;55.670;37.568;2024-02-26T01:41:32;4.38;;;1.98;;
22094;SDS011;24083;55.670;37.568;2024-02-26T04:05:17;2.67;;;1.50;;
22094;SDS011;24083;55.670;37.568;2024-02-26T04:14:00;3.78;;;2.20;;
22094;SDS011;24083;55.670;37.568;2024-02-26T04:50:00;4.38;;;2.22;;
22094;SDS011;24083;55.670;37.568;2024-02-26T04:52:26;3.60;;;2.30;;
22094;SDS011;24083;55.670;37.568;2024-02-26T04:58:08;4.30;;;2.47;;
22094;SDS011;24083;55.670;37.568;2024-02-26T05:00:34;6.70;;;2.40;;
22094;SDS011;24083;55.670;37.568;2024-02-26T10:51:29;8.90;;;3.85;;
22094;SDS011;24083;55.670;37.568;2024-02-26T11:38:29;10.13;;;4.05;;
22094;SDS011;24083;55.670;37.568;2024-02-26T11:40:55;13.65;;;4.18;;
22094;SDS011;24083;55.670;37.568;2024-02-26T11:46:05;13.68;;;3.85;;
22094;SDS011;24083;55.670;37.568;2024-02-26T11:48:49;7.63;;;3.78;;
22094;SDS011;24083;55.670;37.568;2024-02-26T11:51:15;12.48;;;3.88;;
22094;SDS011;24083;55.670;37.568;2024-02-26T11:53:47;10.18;;;4.82;;
22094;SDS011;24083;55.670;37.568;2024-02-26T11:58:42;9.50;;;3.75;;
22094;SDS011;24083;55.670;37.568;2024-02-26T12:03:54;13.52;;;3.83;;
22094;SDS011;24083;55.670;37.568;2024-02-26T12:06:20;11.80;;;3.60;;
22094;SDS011;24083;55.670;37.568;2024-02-26T12:08:46;10.73;;;3.65;;
22094;SDS011;24083;55.670;37.568;2024-02-26T12:11:15;11.98;;;4.07;;
22094;SDS011;24083;55.670;37.568;2024-02-26T12:13:41;7.55;;;3.53;;
22094;SDS011;24083;55.670;37.568;2024-02-26T12:16:08;10.48;;;3.90;;
22094;SDS011;24083;55.670;37.568;2024-02-26T12:18:34;8.07;;;3.80;;
22094;SDS011;24083;55.670;37.568;2024-02-26T12:21:01;13.52;;;4.53;;
22094;SDS011;24083;55.670;37.568;2024-02-26T12:23:26;10.10;;;4.75;;
22094;SDS011;24083;55.670;37.568;2024-02-26T12:25:54;9.48;;;3.78;;
22094;SDS011;24083;55.670;37.568;2024-02-26T12:28:19;6.50;;;3.88;;
22094;SDS011;24083;55.670;37.568;2024-02-26T12:30:45;12.00;;;4.05;;
22094;SDS011;24083;55.670;37.568;2024-02-26T12:33:11;10.40;;;4.47;;
22094;SDS011;24083;55.670;37.568;2024-02-26T12:35:37;8.52;;;2.92;;
22094;SDS011;24083;55.670;37.568;2024-02-26T12:38:02;9.77;;;4.18;;
22094;SDS011;24083;55.670;37.568;2024-02-26T12:40:30;10.38;;;4.00;;
22094;SDS011;24083;55.670;37.568;2024-02-26T12:42:57;10.23;;;4.32;;
22094;SDS011;24083;55.670;37.568;2024-02-26T12:45:23;9.20;;;3.80;;
22094;SDS011;24083;55.670;37.568;2024-02-26T12:47:51;10.63;;;3.60;;
22094;SDS011;24083;55.670;37.568;2024-02-26T12:50:17;9.93;;;4.20;;
22094;SDS011;24083;55.670;37.568;2024-02-26T12:52:43;10.10;;;3.78;;
22094;SDS011;24083;55.670;37.568;2024-02-26T12:55:13;7.93;;;3.58;;
22094;SDS011;24083;55.670;37.568;2024-02-26T12:57:39;9.95;;;4.05;;
22094;SDS011;24083;55.670;37.568;2024-02-26T13:00:07;9.73;;;3.90;;
22094;SDS011;24083;55.670;37.568;2024-02-26T13:02:36;8.35;;;3.40;;
22094;SDS011;24083;55.670;37.568;2024-02-26T13:05:05;11.48;;;3.92;;
22094;SDS011;24083;55.670;37.568;2024-02-26T13:07:32;12.60;;;4.00;;
22094;SDS011;24083;55.670;37.568;2024-02-26T13:09:59;8.50;;;2.90;;
22094;SDS011;24083;55.670;37.568;2024-02-26T13:12:24;6.07;;;3.35;;
22094;SDS011;24083;55.670;37.568;2024-02-26T15:34:47;9.15;;;3.30;;
22094;SDS011;24083;55.670;37.568;2024-02-26T15:37:13;8.00;;;3.40;;
22094;SDS011;24083;55.670;37.568;2024-02-26T15:39:39;8.55;;;3.33;;
22094;SDS011;24083;55.670;37.568;2024-02-26T15:42:04;7.93;;;2.70;;
22094;SDS011;24083;55.670;37.568;2024-02-26T15:44:30;8.18;;;3.40;;
22094;SDS011;24083;55.670;37.568;2024-02-26T15:46:57;6.93;;;3.33;;
22094;SDS011;24083;55.670;37.568;2024-02-26T15:49:25;6.60;;;3.45;;
22094;SDS011;24083;55.670;37.568;2024-02-26T15:51:51;8.40;;;2.97;;
22094;SDS011;24083;55.670;37.568;2024-02-26T15:54:19;5.40;;;2.65;;
22094;SDS011;24083;55.670;37.568;2024-02-26T15:56:45;8.55;;;3.40;;
22094;SDS011;24083;55.670;37.568;2024-02-26T16:11:13;9.70;;;3.28;;
22094;SDS011;24083;55.670;37.568;2024-02-26T16:13:39;6.38;;;3.40;;
22094;SDS011;24083;55.670;37.568;2024-02-26T16:16:07;8.23;;;3.20;;
22094;SDS011;24083;55.670;37.568;2024-02-26T16:18:35;9.50;;;3.35;;
22094;SDS011;24083;55.670;37.568;2024-02-26T16:21:01;6.68;;;3.08;;
22094;SDS011;24083;55.670;37.568;2024-02-26T16:23:27;7.15;;;3.65;;
22094;SDS011;24083;55.670;37.568;2024-02-26T16:25:54;5.43;;;2.70;;
22094;SDS011;24083;55.670;37.568;2024-02-26T16:28:19;5.97;;;3.05;;
22094;SDS011;24083;55.670;37.568;2024-02-26T16:30:50;8.73;;;3.80;;
22094;SDS011;24083;55.670;37.568;2024-02-26T16:33:17;11.45;;;4.57;;
22094;SDS011;24083;55.670;37.568;2024-02-26T16:35:43;8.32;;;2.90;;
22094;SDS011;24083;55.670;37.568;2024-02-26T16:38:09;10.45;;;4.00;;
22094;SDS011;24083;55.670;37.568;2024-02-26T16:40:36;8.70;;;4.00;;
22094;SDS011;24083;55.670;37.568;2024-02-26T16:43:02;5.15;;;2.47;;
22094;SDS011;24083;55.670;37.568;2024-02-26T16:45:31;7.47;;;4.13;;
22094;SDS011;24083;55.670;37.568;2024-02-26T16:47:57;9.50;;;4.30;;
22094;SDS011;24083;55.670;37.568;2024-02-26T16:50:23;8.85;;;4.18;;
22094;SDS011;24083;55.670;37.568;2024-02-26T16:52:49;8.68;;;3.63;;
22094;SDS011;24083;55.670;37.568;2024-02-26T16:55:15;8.20;;;3.90;;
22094;SDS011;24083;55.670;37.568;2024-02-26T16:57:41;6.38;;;2.58;;
22094;SDS011;24083;55.670;37.568;2024-02-26T17:00:08;9.25;;;3.85;;
22094;SDS011;24083;55.670;37.568;2024-02-26T17:05:00;8.52;;;3.42;;
22094;SDS011;24083;55.670;37.568;2024-02-26T17:07:27;9.50;;;3.30;;
22094;SDS011;24083;55.670;37.568;2024-02-26T17:09:53;8.30;;;3.58;;
22094;SDS011;24083;55.670;37.568;2024-02-26T17:12:20;9.90;;;3.95;;
22094;SDS011;24083;55.670;37.568;2024-02-26T17:14:49;5.90;;;2.85;;
22094;SDS011;24083;55.670;37.568;2024-02-26T17:17:16;6.72;;;3.35;;
22094;SDS011;24083;55.670;37.568;2024-02-26T17:19:46;5.63;;;2.80;;
22094;SDS011;24083;55.670;37.568;2024-02-26T18:11:15;9.38;;;3.75;;
22094;SDS011;24083;55.670;37.568;2024-02-26T18:21:48;7.30;;;3.25;;
22094;SDS011;24083;55.670;37.568;2024-02-26T18:28:26;6.85;;;2.60;;
22094;SDS011;24083;55.670;37.568;2024-02-26T18:39:07;10.60;;;3.80;;
22094;SDS011;24083;55.670;37.568;2024-02-26T19:27:48;7.47;;;3.78;;
22094;SDS011;24083;55.670;37.568;2024-02-26T19:30:15;7.72;;;3.42;;
22094;SDS011;24083;55.670;37.568;2024-02-26T19:32:44;5.55;;;2.78;;
22094;SDS011;24083;55.670;37.568;2024-02-26T19:43:21;9.73;;;3.88;;
22094;SDS011;24083;55.670;37.568;2024-02-26T20:10:15;7.15;;;3.10;;
22094;SDS011;24083;55.670;37.568;2024-02-26T20:19:30;10.98;;;3.80;;
22094;SDS011;24083;55.670;37.568;2024-02-26T20:35:50;9.00;;;3.53;;
22094;SDS011;24083;55.670;37.568;2024-02-26T20:59:51;10.45;;;4.63;;
22094;SDS011;24083;55.670;37.568;2024-02-26T22:05:46;11.20;;;5.45;;
22094;SDS011;24083;55.670;37.568;2024-02-26T22:08:24;9.52;;;4.38;;
22094;SDS011;24083;55.670;37.568;2024-02-26T22:26:18;8.55;;;4.13;;
22094;SDS011;24083;55.670;37.568;2024-02-26T22:28:45;12.95;;;4.50;;
22094;SDS011;24083;55.670;37.568;2024-02-26T22:31:12;8.80;;;4.38;;
22094;SDS011;24083;55.670;37.568;2024-02-26T22:33:39;16.08;;;4.70;;
22094;SDS011;24083;55.670;37.568;2024-02-26T22:36:06;10.23;;;3.72;;
22094;SDS011;24083;55.670;37.568;2024-02-26T22:38:35;10.77;;;4.05;;
22094;SDS011;24083;55.670;37.568;2024-02-26T22:41:19;11.60;;;4.43;;
22094;SDS011;24083;55.670;37.568;2024-02-26T22:43:45;10.48;;;4.47;;
22094;SDS011;24083;55.670;37.568;2024-02-26T22:46:20;8.23;;;3.03;;
22094;SDS011;24083;55.670;37.568;2024-02-26T22:59:06;11.68;;;4.22;;
22094;SDS011;24083;55.670;37.568;2024-02-26T23:08:32;12.23;;;4.65;;
22094;SDS011;24083;55.670;37.568;2024-02-26T23:11:00;8.38;;;4.88;;
22094;SDS011;24083;55.670;37.568;2024-02-26T23:27:24;10.43;;;4.28;;
22094;SDS011;24083;55.670;37.568;2024-02-26T23:29:50;11.90;;;3.28;;
22094;SDS011;24083;55.670;37.568;2024-02-26T23:32:23;8.65;;;4.43;;
22094;SDS011;24083;55.670;37.568;2024-02-26T23:43:26;11.05;;;5.55;;
22094;SDS011;24083;55.670;37.568;2024-02-26T23:45:53;8.48;;;3.33;;
22094;SDS011;24083;55.670;37.568;2024-02-26T23:48:25;7.53;;;4.25;;
22094;SDS011;24083;55.670;37.568;2024-02-26T23:50:54;8.77;;;4.63;;
22094;SDS011;24083;55.670;37.568;2024-02-26T23:53:20;10.02;;;4.60;;
22094;SDS011;24083;55.670;37.568;2024-02-26T23:56:38;10.35;;;3.35;;
